createdAt,value
2023-02-04T00:00:31.030Z,2.75
2023-02-04T00:02:58.975Z,2.72
2023-02-04T00:05:26.833Z,2.92
2023-02-04T00:07:54.735Z,2.83
2023-02-04T00:10:22.405Z,2.72
2023-02-04T00:12:50.125Z,3.25
2023-02-04T00:15:17.882Z,2.97
2023-02-04T00:17:46.923Z,3.30
2023-02-04T00:20:14.749Z,2.85
2023-02-04T00:22:42.503Z,3.25
2023-02-04T00:25:10.191Z,2.53
2023-02-04T00:27:38.057Z,2.83
2023-02-04T00:30:06.632Z,2.80
2023-02-04T00:32:37.043Z,2.70
2023-02-04T00:35:06.660Z,3.00
2023-02-04T00:37:34.500Z,2.97
2023-02-04T00:40:02.426Z,2.58
2023-02-04T00:42:30.122Z,2.90
2023-02-04T00:44:57.840Z,3.00
2023-02-04T00:47:25.565Z,2.42
2023-02-04T00:49:53.205Z,2.60
2023-02-04T00:52:22.220Z,2.60
2023-02-04T00:54:49.934Z,2.63
2023-02-04T00:57:17.604Z,2.80
2023-02-04T00:59:45.337Z,2.70
2023-02-04T01:02:12.994Z,2.80
2023-02-04T01:04:40.678Z,2.38
2023-02-04T01:07:08.591Z,2.50
2023-02-04T01:09:37.636Z,2.65
2023-02-04T01:12:05.693Z,2.78
2023-02-04T01:14:33.481Z,2.70
2023-02-04T01:17:01.160Z,2.90
2023-02-04T01:19:28.812Z,2.72
2023-02-04T01:21:56.496Z,3.05
2023-02-04T01:24:24.178Z,2.53
2023-02-04T01:26:53.229Z,2.20
2023-02-04T01:29:20.919Z,2.30
2023-02-04T01:31:48.556Z,2.65
2023-02-04T01:34:16.287Z,2.80
2023-02-04T01:36:44.005Z,2.40
2023-02-04T01:39:11.685Z,2.55
2023-02-04T01:41:39.408Z,2.30
2023-02-04T01:44:08.651Z,2.60
2023-02-04T01:46:37.416Z,2.33
2023-02-04T01:49:06.175Z,2.42
2023-02-04T01:51:34.168Z,2.47
2023-02-04T01:54:01.856Z,2.53
2023-02-04T01:56:31.988Z,2.45
2023-02-04T01:58:59.980Z,2.10
2023-02-04T02:01:42.001Z,1.80
2023-02-04T02:04:18.074Z,2.60
2023-02-04T02:06:52.466Z,2.05
2023-02-04T02:09:22.956Z,2.72
2023-02-04T02:11:50.840Z,2.08
2023-02-04T02:14:18.606Z,2.08
2023-02-04T02:16:47.666Z,2.28
2023-02-04T02:19:19.334Z,2.47
2023-02-04T02:21:56.265Z,2.03
2023-02-04T02:24:30.399Z,2.30
2023-02-04T02:27:03.528Z,2.10
2023-02-04T02:29:38.452Z,2.17
2023-02-04T02:32:07.021Z,2.30
2023-02-04T02:34:35.586Z,2.50
2023-02-04T02:37:04.351Z,1.95
2023-02-04T02:39:33.658Z,2.30
2023-02-04T02:42:01.439Z,2.28
2023-02-04T02:44:30.107Z,2.20
2023-02-04T02:46:59.803Z,2.00
2023-02-04T02:49:36.228Z,1.90
2023-02-04T02:52:03.964Z,2.10
2023-02-04T02:54:34.174Z,2.40
2023-02-04T02:57:01.952Z,2.17
2023-02-04T02:59:29.691Z,2.40
2023-02-04T03:02:00.354Z,2.20
2023-02-04T03:04:30.094Z,2.25
2023-02-04T03:06:57.918Z,2.30
2023-02-04T03:09:27.953Z,2.40
2023-02-04T03:11:57.404Z,2.65
2023-02-04T03:14:25.955Z,2.13
2023-02-04T03:16:54.940Z,2.72
2023-02-04T03:19:23.775Z,2.65
2023-02-04T03:21:51.573Z,3.22
2023-02-04T03:24:19.470Z,3.10
2023-02-04T03:26:47.220Z,2.78
2023-02-04T03:29:16.629Z,3.10
2023-02-04T03:31:44.395Z,3.17
2023-02-04T03:34:12.689Z,3.17
2023-02-04T03:36:40.337Z,3.58
2023-02-04T03:39:08.063Z,3.63
2023-02-04T03:41:35.760Z,3.38
2023-02-04T03:44:03.481Z,3.42
2023-02-04T03:46:32.553Z,3.50
2023-02-04T03:49:00.217Z,4.03
2023-02-04T03:51:27.852Z,3.85
2023-02-04T03:54:08.779Z,4.80
2023-02-04T03:56:36.439Z,3.30
2023-02-04T03:59:04.091Z,2.80
2023-02-04T04:01:33.214Z,2.55
2023-02-04T04:04:00.912Z,2.58
2023-02-04T04:06:28.531Z,3.25
2023-02-04T04:08:56.184Z,2.95
2023-02-04T04:11:23.848Z,2.90
2023-02-04T04:13:51.822Z,2.60
2023-02-04T04:16:20.675Z,2.90
2023-02-04T04:18:50.048Z,3.78
2023-02-04T04:21:17.650Z,4.05
2023-02-04T04:23:45.294Z,4.05
2023-02-04T04:26:12.916Z,4.47
2023-02-04T04:28:40.676Z,4.10
2023-02-04T04:31:08.427Z,4.10
2023-02-04T04:33:36.071Z,4.10
2023-02-04T04:36:05.661Z,3.90
2023-02-04T04:38:33.388Z,3.92
2023-02-04T04:41:01.010Z,3.67
2023-02-04T04:43:28.703Z,3.53
2023-02-04T04:45:56.436Z,4.20
2023-02-04T04:48:25.141Z,4.97
2023-02-04T04:50:53.228Z,4.30
2023-02-04T04:53:22.226Z,4.35
2023-02-04T04:55:49.870Z,3.47
2023-02-04T04:58:17.481Z,3.20
2023-02-04T05:00:45.218Z,3.25
2023-02-04T05:03:12.962Z,2.92
2023-02-04T05:05:41.399Z,3.50
2023-02-04T05:08:10.899Z,3.35
2023-02-04T05:10:40.395Z,3.83
2023-02-04T05:13:08.357Z,4.00
2023-02-04T05:15:36.504Z,4.00
2023-02-04T05:18:04.311Z,3.80
2023-02-04T05:20:32.181Z,3.65
2023-02-04T05:23:01.283Z,3.47
2023-02-04T05:25:29.397Z,3.13
2023-02-04T05:27:58.349Z,2.70
2023-02-04T05:30:26.153Z,3.13
2023-02-04T05:32:54.331Z,2.95
2023-02-04T05:35:22.038Z,3.33
2023-02-04T05:37:49.737Z,3.13
2023-02-04T05:40:17.610Z,3.45
2023-02-04T05:42:45.382Z,3.50
2023-02-04T05:45:15.740Z,4.18
2023-02-04T05:47:43.414Z,4.43
2023-02-04T05:50:11.774Z,4.00
2023-02-04T05:52:40.155Z,4.30
2023-02-04T05:55:08.721Z,4.25
2023-02-04T05:57:36.379Z,4.38
2023-02-04T06:00:04.893Z,4.75
2023-02-04T06:02:33.932Z,4.80
2023-02-04T06:05:01.630Z,4.80
2023-02-04T06:07:29.241Z,4.80
2023-02-04T06:09:57.635Z,4.28
2023-02-04T06:12:26.654Z,4.57
2023-02-04T06:14:54.239Z,4.70
2023-02-04T06:17:21.892Z,4.47
2023-02-04T06:19:50.838Z,4.38
2023-02-04T06:22:18.524Z,4.30
2023-02-04T06:24:47.475Z,4.05
2023-02-04T06:27:18.596Z,3.80
2023-02-04T06:29:46.246Z,4.35
2023-02-04T06:32:13.894Z,4.30
2023-02-04T06:34:41.645Z,5.03
2023-02-04T06:37:10.722Z,4.78
2023-02-04T06:39:38.360Z,3.95
2023-02-04T06:42:06.130Z,4.28
2023-02-04T06:44:33.817Z,4.05
2023-02-04T06:47:01.576Z,4.15
2023-02-04T06:49:29.277Z,4.65
2023-02-04T06:51:57.011Z,7.40
2023-02-04T06:54:26.009Z,5.70
2023-02-04T06:56:53.629Z,4.63
2023-02-04T06:59:21.263Z,4.78
2023-02-04T07:01:49.016Z,5.07
2023-02-04T07:04:16.668Z,5.10
2023-02-04T07:06:44.408Z,6.85
2023-02-04T07:09:12.191Z,4.75
2023-02-04T07:11:41.176Z,6.10
2023-02-04T07:14:10.389Z,6.15
2023-02-04T07:16:38.430Z,7.43
2023-02-04T07:19:06.110Z,6.15
2023-02-04T07:21:33.720Z,6.60
2023-02-04T07:24:01.729Z,5.32
2023-02-04T07:26:29.407Z,5.95
2023-02-04T07:28:58.471Z,10.18
2023-02-04T07:31:26.147Z,11.02
2023-02-04T07:33:53.861Z,7.03
2023-02-04T07:36:21.745Z,6.97
2023-02-04T07:38:49.519Z,7.45
2023-02-04T07:41:17.402Z,7.28
2023-02-04T07:43:45.000Z,6.15
2023-02-04T07:46:14.025Z,6.03
2023-02-04T07:48:41.674Z,4.60
2023-02-04T07:51:12.710Z,4.35
2023-02-04T07:53:40.522Z,4.55
2023-02-04T07:56:08.384Z,4.20
2023-02-04T07:58:36.024Z,4.15
2023-02-04T08:01:03.885Z,4.43
2023-02-04T08:03:33.133Z,4.45
2023-02-04T08:06:04.527Z,4.65
2023-02-04T08:08:32.176Z,4.70
2023-02-04T08:11:01.106Z,4.60
2023-02-04T08:13:28.726Z,4.90
2023-02-04T08:15:56.543Z,5.03
2023-02-04T08:18:25.251Z,5.25
2023-02-04T08:20:54.343Z,4.70
2023-02-04T08:23:22.950Z,4.60
2023-02-04T08:25:50.620Z,4.75
2023-02-04T08:28:20.324Z,4.88
2023-02-04T08:30:48.274Z,4.05
2023-02-04T08:33:16.080Z,4.97
2023-02-04T08:35:43.924Z,4.68
2023-02-04T08:38:13.054Z,5.78
2023-02-04T08:40:42.058Z,5.30
2023-02-04T08:43:09.908Z,5.15
2023-02-04T08:45:39.843Z,5.47
2023-02-04T08:48:07.822Z,6.07
2023-02-04T08:50:37.305Z,5.40
2023-02-04T08:53:06.636Z,5.25
2023-02-04T08:55:36.053Z,5.85
2023-02-04T08:58:03.809Z,5.38
2023-02-04T09:00:31.980Z,5.88
2023-02-04T09:02:59.957Z,5.10
2023-02-04T09:05:27.691Z,6.30
2023-02-04T09:07:55.376Z,6.88
2023-02-04T09:10:24.674Z,6.20
2023-02-04T09:12:56.099Z,6.30
2023-02-04T09:15:24.982Z,9.35
2023-02-04T09:17:53.845Z,6.93
2023-02-04T09:20:22.015Z,5.53
2023-02-04T09:22:56.248Z,8.88
2023-02-04T09:25:23.910Z,6.70
2023-02-04T09:27:53.047Z,11.23
2023-02-04T09:30:20.849Z,8.95
2023-02-04T09:32:48.616Z,5.43
2023-02-04T09:35:18.897Z,11.40
2023-02-04T09:37:46.525Z,17.10
2023-02-04T09:40:17.078Z,12.18
2023-02-04T09:42:46.894Z,6.43
2023-02-04T09:45:18.931Z,6.20
2023-02-04T09:47:46.586Z,4.85
2023-02-04T09:50:19.679Z,5.63
2023-02-04T09:52:49.416Z,3.20
2023-02-04T09:55:18.340Z,3.60
2023-02-04T09:57:46.328Z,3.25
2023-02-04T10:00:22.901Z,3.15
2023-02-04T10:02:50.598Z,4.13
2023-02-04T10:05:22.396Z,3.42
2023-02-04T10:07:50.352Z,3.92
2023-02-04T10:10:20.650Z,3.15
2023-02-04T10:12:49.502Z,3.60
2023-02-04T10:15:20.361Z,3.17
2023-02-04T10:17:49.567Z,3.45
2023-02-04T10:20:18.450Z,3.60
2023-02-04T10:22:46.377Z,4.00
2023-02-04T10:25:15.319Z,3.05
2023-02-04T10:27:50.522Z,3.90
2023-02-04T10:30:23.280Z,4.03
2023-02-04T10:32:51.852Z,4.13
2023-02-04T10:35:22.551Z,4.10
2023-02-04T10:38:04.146Z,3.92
2023-02-04T10:40:33.787Z,3.67
2023-02-04T10:43:09.244Z,3.95
2023-02-04T10:45:39.660Z,3.78
2023-02-04T10:48:07.974Z,3.83
2023-02-04T10:50:35.666Z,4.05
2023-02-04T10:53:21.261Z,3.97
2023-02-04T10:55:51.285Z,3.60
2023-02-04T10:58:21.743Z,4.13
2023-02-04T11:00:50.761Z,4.47
2023-02-04T11:03:23.223Z,4.00
2023-02-04T11:05:51.879Z,4.10
2023-02-04T11:08:22.985Z,3.80
2023-02-04T11:10:57.233Z,4.35
2023-02-04T11:13:27.080Z,3.38
2023-02-04T11:16:13.695Z,3.70
2023-02-04T11:18:50.202Z,4.00
2023-02-04T11:21:25.737Z,5.00
2023-02-04T11:24:05.758Z,4.00
2023-02-04T11:26:35.726Z,3.80
2023-02-04T11:29:25.847Z,3.90
2023-02-04T11:32:03.316Z,3.55
2023-02-04T11:34:44.708Z,4.10
2023-02-04T11:37:30.122Z,4.25
2023-02-04T11:39:59.751Z,3.97
2023-02-04T11:42:32.979Z,4.55
2023-02-04T11:45:03.497Z,3.67
2023-02-04T11:47:37.614Z,6.07
2023-02-04T11:50:15.919Z,4.18
2023-02-04T11:52:43.556Z,5.15
2023-02-04T11:55:12.720Z,4.28
2023-02-04T11:57:41.495Z,3.58
2023-02-04T12:00:15.794Z,4.45
2023-02-04T12:02:47.234Z,4.35
2023-02-04T12:05:16.730Z,4.10
2023-02-04T12:07:45.022Z,5.78
2023-02-04T12:10:15.634Z,4.15
2023-02-04T12:12:49.530Z,4.10
2023-02-04T12:15:24.001Z,4.90
2023-02-04T12:18:08.883Z,3.83
2023-02-04T12:20:37.382Z,4.10
2023-02-04T12:23:05.472Z,3.45
2023-02-04T12:25:33.789Z,4.25
2023-02-04T12:28:01.710Z,3.60
2023-02-04T12:30:29.456Z,4.65
2023-02-04T12:32:57.302Z,3.58
2023-02-04T12:35:26.420Z,3.33
2023-02-04T12:37:54.054Z,4.22
2023-02-04T12:40:22.728Z,3.03
2023-02-04T12:42:50.459Z,3.67
2023-02-04T12:45:19.155Z,2.95
2023-02-04T12:47:47.046Z,2.58
2023-02-04T12:50:22.396Z,3.10
2023-02-04T12:52:53.176Z,3.78
2023-02-04T12:55:21.224Z,4.32
2023-02-04T12:57:48.900Z,4.25
2023-02-04T13:00:19.620Z,7.05
2023-02-04T13:02:47.704Z,4.38
2023-02-04T13:05:16.868Z,3.70
2023-02-04T13:07:44.523Z,3.47
2023-02-04T13:10:15.179Z,4.85
2023-02-04T13:12:42.927Z,3.53
2023-02-04T13:15:11.625Z,4.93
2023-02-04T13:17:39.340Z,4.50
2023-02-04T13:20:09.043Z,19.52
2023-02-04T13:22:36.713Z,10.88
2023-02-04T13:25:04.409Z,18.75
2023-02-04T13:27:33.387Z,12.77
2023-02-04T13:30:01.047Z,11.45
2023-02-04T13:32:28.662Z,5.95
2023-02-04T13:34:56.302Z,4.30
2023-02-04T13:37:23.958Z,3.65
2023-02-04T13:39:51.589Z,4.47
2023-02-04T13:42:19.379Z,2.67
2023-02-04T13:44:48.371Z,2.80
2023-02-04T13:47:16.065Z,2.80
2023-02-04T13:49:43.784Z,2.92
2023-02-04T13:52:11.363Z,3.05
2023-02-04T13:54:38.989Z,3.00
2023-02-04T13:57:06.738Z,2.97
2023-02-04T13:59:34.352Z,2.72
2023-02-04T14:02:05.873Z,3.17
2023-02-04T14:04:34.635Z,2.75
2023-02-04T14:07:02.588Z,2.58
2023-02-04T14:09:30.314Z,2.50
2023-02-04T14:12:00.420Z,2.10
2023-02-04T14:14:28.025Z,2.17
2023-02-04T14:16:55.819Z,2.78
2023-02-04T14:19:27.608Z,2.40
2023-02-04T14:21:55.669Z,2.38
2023-02-04T14:24:23.283Z,2.30
2023-02-04T14:26:51.020Z,2.28
2023-02-04T14:29:18.893Z,2.40
2023-02-04T14:31:46.600Z,2.60
2023-02-04T14:34:14.437Z,2.88
2023-02-04T14:36:43.436Z,3.30
2023-02-04T14:39:11.125Z,2.42
2023-02-04T14:41:38.801Z,2.17
2023-02-04T14:44:06.695Z,2.75
2023-02-04T14:46:34.370Z,3.15
2023-02-04T14:49:02.100Z,2.58
2023-02-04T14:51:29.710Z,2.60
2023-02-04T14:53:58.652Z,2.38
2023-02-04T14:56:27.267Z,2.47
2023-02-04T14:58:54.878Z,2.30
2023-02-04T15:01:22.647Z,1.95
2023-02-04T15:03:50.876Z,2.17
2023-02-04T15:06:18.587Z,1.95
2023-02-04T15:08:46.357Z,1.70
2023-02-04T15:11:15.305Z,1.92
2023-02-04T15:13:42.925Z,1.95
2023-02-04T15:16:14.285Z,1.67
2023-02-04T15:18:42.341Z,1.70
2023-02-04T15:21:10.168Z,3.00
2023-02-04T15:23:38.051Z,2.17
2023-02-04T15:26:06.037Z,2.00
2023-02-04T15:28:34.995Z,1.90
2023-02-04T15:31:05.113Z,2.05
2023-02-04T15:33:32.999Z,1.80
2023-02-04T15:36:00.838Z,1.77
2023-02-04T15:38:28.660Z,1.60
2023-02-04T15:40:56.309Z,1.95
2023-02-04T15:43:24.122Z,1.58
2023-02-04T15:45:53.258Z,2.00
2023-02-04T15:48:24.083Z,2.25
2023-02-04T15:50:52.250Z,2.20
2023-02-04T15:53:20.141Z,2.55
2023-02-04T15:55:48.204Z,2.80
2023-02-04T15:58:16.653Z,2.70
2023-02-04T16:00:44.663Z,2.83
2023-02-04T16:03:13.805Z,2.95
2023-02-04T16:05:41.491Z,2.80
2023-02-04T16:08:09.215Z,2.78
2023-02-04T16:10:36.965Z,4.03
2023-02-04T16:13:04.793Z,2.90
2023-02-04T16:15:32.937Z,4.13
2023-02-04T16:18:01.542Z,3.00
2023-02-04T16:20:30.632Z,3.72
2023-02-04T16:22:58.263Z,3.28
2023-02-04T16:25:25.894Z,3.72
2023-02-04T16:27:53.569Z,3.95
2023-02-04T16:30:21.433Z,2.70
2023-02-04T16:32:49.093Z,3.63
2023-02-04T16:35:17.206Z,2.30
2023-02-04T16:37:47.589Z,4.32
2023-02-04T16:40:15.910Z,4.85
2023-02-04T16:42:43.554Z,4.38
2023-02-04T16:45:11.607Z,4.00
2023-02-04T16:47:39.265Z,4.88
2023-02-04T16:50:09.253Z,4.75
2023-02-04T16:52:37.100Z,4.53
2023-02-04T16:55:06.644Z,4.53
2023-02-04T16:57:34.485Z,7.15
2023-02-04T17:00:02.189Z,7.03
2023-02-04T17:02:29.848Z,9.13
2023-02-04T17:04:57.555Z,7.82
2023-02-04T17:07:25.162Z,8.80
2023-02-04T17:09:52.812Z,9.27
2023-02-04T17:12:21.916Z,8.02
2023-02-04T17:14:49.562Z,8.65
2023-02-04T17:17:18.213Z,11.52
2023-02-04T17:19:45.813Z,10.48
2023-02-04T17:22:13.457Z,9.60
2023-02-04T17:24:43.597Z,9.95
2023-02-04T17:27:11.822Z,7.25
2023-02-04T17:29:40.807Z,6.38
2023-02-04T17:32:12.273Z,13.40
2023-02-04T17:34:39.899Z,7.93
2023-02-04T17:37:07.590Z,6.43
2023-02-04T17:39:35.208Z,4.63
2023-02-04T17:42:02.913Z,7.45
2023-02-04T17:44:30.536Z,4.95
2023-02-04T17:46:59.626Z,3.40
2023-02-04T17:49:27.646Z,4.30
2023-02-04T17:51:55.305Z,6.20
2023-02-04T17:54:23.105Z,7.35
2023-02-04T17:56:51.314Z,7.85
2023-02-04T17:59:34.202Z,7.45
2023-02-04T18:04:33.018Z,8.40
2023-02-04T18:07:00.686Z,8.20
2023-02-04T18:09:28.432Z,8.43
2023-02-04T18:11:56.042Z,6.88
2023-02-04T18:14:27.701Z,6.50
2023-02-04T18:16:59.567Z,5.90
2023-02-04T18:19:31.062Z,5.90
2023-02-04T18:21:59.739Z,6.28
2023-02-04T18:24:30.251Z,5.22
2023-02-04T18:27:02.173Z,4.18
2023-02-04T18:29:33.283Z,6.88
2023-02-04T18:32:03.384Z,7.78
2023-02-04T18:34:37.431Z,8.93
2023-02-04T18:37:25.148Z,9.18
2023-02-04T18:39:54.281Z,9.02
2023-02-04T18:42:26.029Z,9.25
2023-02-04T18:44:55.077Z,9.05
2023-02-04T18:47:31.578Z,7.82
2023-02-04T18:50:03.032Z,8.90
2023-02-04T18:52:37.533Z,8.23
2023-02-04T18:55:20.943Z,8.77
2023-02-04T18:57:48.552Z,7.47
2023-02-04T19:00:27.983Z,8.13
2023-02-04T19:02:58.436Z,8.45
2023-02-04T19:05:35.846Z,7.32
2023-02-04T19:08:22.205Z,8.27
2023-02-04T19:10:51.139Z,6.65
2023-02-04T19:13:21.349Z,7.93
2023-02-04T19:15:57.531Z,8.25
2023-02-04T19:18:27.066Z,8.07
2023-02-04T19:20:57.181Z,7.43
2023-02-04T19:23:25.619Z,7.93
2023-02-04T19:25:53.761Z,9.30
2023-02-04T19:28:29.008Z,9.88
2023-02-04T19:31:06.738Z,8.95
2023-02-04T19:33:38.175Z,11.80
2023-02-04T19:36:38.563Z,11.60
2023-02-04T19:39:24.443Z,11.15
2023-02-04T19:41:53.648Z,10.50
2023-02-04T19:44:33.489Z,10.50
2023-02-04T19:47:19.452Z,9.90
2023-02-04T19:49:47.185Z,10.05
2023-02-04T19:52:30.942Z,10.63
2023-02-04T19:55:21.778Z,10.05
2023-02-04T19:57:52.334Z,9.45
2023-02-04T20:00:39.692Z,13.50
2023-02-04T20:03:31.322Z,11.63
2023-02-04T20:06:01.865Z,14.40
2023-02-04T20:08:55.172Z,13.45
2023-02-04T20:11:35.696Z,11.45
2023-02-04T20:14:20.884Z,7.95
2023-02-04T20:16:51.638Z,7.30
2023-02-04T20:19:21.787Z,7.53
2023-02-04T20:22:01.416Z,8.25
2023-02-04T20:24:35.688Z,10.50
2023-02-04T20:27:16.687Z,9.93
2023-02-04T20:29:44.509Z,13.93
2023-02-04T20:32:21.328Z,17.55
2023-02-04T20:34:48.940Z,12.93
2023-02-04T20:37:24.752Z,12.88
2023-02-04T20:39:53.860Z,9.35
2023-02-04T20:42:45.040Z,9.68
2023-02-04T20:45:25.876Z,8.75
2023-02-04T20:47:57.298Z,9.57
2023-02-04T20:50:41.268Z,9.77
2023-02-04T20:53:22.987Z,8.82
2023-02-04T20:55:54.592Z,8.75
2023-02-04T20:58:24.199Z,9.02
2023-02-04T21:00:56.757Z,9.20
2023-02-04T21:03:30.372Z,9.23
2023-02-04T21:06:00.104Z,9.40
2023-02-04T21:08:42.296Z,8.90
2023-02-04T21:11:11.689Z,14.23
2023-02-04T21:13:40.964Z,11.00
2023-02-04T21:16:09.391Z,9.07
2023-02-04T21:18:37.284Z,9.80
2023-02-04T21:21:07.814Z,9.82
2023-02-04T21:23:36.551Z,9.18
2023-02-04T21:26:04.733Z,8.98
2023-02-04T21:28:34.322Z,10.30
2023-02-04T21:31:02.234Z,11.07
2023-02-04T21:33:30.070Z,10.68
2023-02-04T21:35:57.769Z,10.32
2023-02-04T21:38:25.399Z,10.70
2023-02-04T21:40:53.004Z,10.85
2023-02-04T21:43:20.709Z,11.23
2023-02-04T21:45:49.694Z,12.00
2023-02-04T21:48:17.339Z,11.50
2023-02-04T21:50:44.970Z,13.02
2023-02-04T21:53:12.706Z,11.57
2023-02-04T21:55:40.423Z,11.65
2023-02-04T21:58:08.183Z,11.63
2023-02-04T22:00:36.256Z,11.55
2023-02-04T22:03:06.108Z,11.80
2023-02-04T22:05:34.936Z,10.80
2023-02-04T22:08:02.797Z,11.82
2023-02-04T22:10:30.415Z,11.43
2023-02-04T22:12:58.099Z,12.55
2023-02-04T22:15:25.684Z,11.68
2023-02-04T22:17:54.316Z,11.27
2023-02-04T22:20:25.567Z,9.77
2023-02-04T22:22:53.609Z,10.00
2023-02-04T22:25:22.443Z,12.38
2023-02-04T22:27:50.372Z,14.48
2023-02-04T22:30:19.099Z,12.30
2023-02-04T22:32:46.972Z,11.00
2023-02-04T22:35:15.602Z,10.88
2023-02-04T22:37:44.586Z,9.63
2023-02-04T22:40:13.327Z,10.07
2023-02-04T22:42:41.221Z,10.10
2023-02-04T22:45:10.236Z,9.20
2023-02-04T22:47:38.259Z,9.38
2023-02-04T22:50:06.475Z,10.40
2023-02-04T22:52:34.333Z,10.00
2023-02-04T22:55:03.369Z,10.38
2023-02-04T22:57:31.012Z,10.18
2023-02-04T22:59:59.144Z,10.05
2023-02-04T23:02:27.036Z,10.10
2023-02-04T23:04:54.685Z,9.23
2023-02-04T23:07:22.588Z,8.93
2023-02-04T23:09:51.021Z,10.50
2023-02-04T23:12:20.062Z,13.25
2023-02-04T23:14:49.557Z,12.73
2023-02-04T23:17:18.638Z,14.88
2023-02-04T23:19:46.671Z,15.45
2023-02-04T23:22:15.736Z,11.40
2023-02-04T23:24:43.669Z,11.60
2023-02-04T23:27:11.982Z,9.13
2023-02-04T23:29:41.393Z,9.13
2023-02-04T23:32:09.489Z,10.20
2023-02-04T23:34:37.797Z,8.48
2023-02-04T23:37:05.516Z,8.48
2023-02-04T23:39:33.178Z,7.97
2023-02-04T23:42:00.876Z,8.48
2023-02-04T23:44:28.580Z,8.52
2023-02-04T23:46:57.545Z,8.30
2023-02-04T23:49:25.338Z,8.10
2023-02-04T23:51:52.962Z,9.13
2023-02-04T23:54:20.608Z,8.20
2023-02-04T23:56:48.367Z,8.73
2023-02-04T23:59:16.069Z,8.40
